Date,TemperatureHighF,TemperatureAvgF,TemperatureLowF,DewpointHighF,DewpointAvgF,DewpointLowF,HumidityHigh,HumidityAvg,HumidityLow,PressureMaxIn,PressureMinIn,WindSpeedMaxMPH,WindSpeedAvgMPH,GustSpeedMaxMPH,PrecipitationSumIn
2013-1-1,37,35,32,34,31,24,92,87,76,30.18,30.06,3,1,8,0.07
2013-1-2,33,29,26,25,23,21,85,77,62,30.29,30.17,3,0,7,0.00
2013-1-3,40,30,21,27,22,18,90,74,49,30.41,30.25,3,0,12,0.00
2013-1-4,42,33,27,28,25,22,86,74,57,30.44,30.38,4,1,16,0.00
2013-1-5,46,34,23,31,26,20,92,75,51,30.41,30.21,4,0,11,0.00
2013-1-6,42,37,28,35,29,22,78,72,66,30.41,30.11,3,2,14,0.00
2013-1-7,42,30,21,28,23,18,90,76,55,30.49,30.26,2,0,5,0.00
2013-1-8,55,37,25,36,29,22,90,75,48,30.35,30.23,5,1,13,0.00
2013-1-9,59,48,38,46,41,33,87,77,54,30.50,30.24,4,1,8,0.00
2013-1-10,51,46,41,49,41,34,93,85,66,30.50,30.03,2,0,5,0.15
2013-1-11,67,58,48,58,52,46,95,81,55,30.03,29.86,5,2,13,0.43
2013-1-12,69,64,56,64,60,53,95,88,79,30.01,29.76,7,2,18,0.01
2013-1-13,69,53,33,62,50,30,94,89,75,30.20,29.73,10,2,27,2.37
2013-1-14,33,29,26,30,23,21,87,78,68,30.48,30.20,5,2,11,0.00
2013-1-15,33,29,24,30,24,21,92,82,73,30.37,30.09,5,3,10,0.00
2013-1-16,34,32,31,30,29,28,92,88,84,30.16,30.03,3,0,7,0.02
2013-1-17,46,36,29,34,29,24,89,75,47,30.44,30.13,8,2,18,0.19
2013-1-18,44,34,24,28,24,19,88,68,47,30.56,30.30,5,1,13,0.01
2013-1-19,57,48,39,31,29,27,64,50,34,30.30,30.00,9,5,21,0.00
2013-1-20,48,39,28,35,19,8,72,46,26,30.27,30.04,4,1,12,0.00
2013-1-21,31,26,17,18,10,1,72,52,34,30.34,30.18,5,1,16,0.00
2013-1-22,23,17,12,4,1,-2,58,48,35,30.48,30.33,3,1,9,0.00
2013-1-24,29,26,24,4,0,-4,41,32,25,30.55,30.42,3,1,9,0.00
2013-1-25,30,26,24,24,18,4,88,71,41,30.44,30.11,2,0,8,0.00
2013-1-26,38,29,22,24,22,19,91,75,53,30.43,30.21,4,0,9,0.01
2013-1-27,48,34,25,43,27,19,91,75,61,30.44,30.15,5,0,13,0.15
2013-1-28,58,53,48,52,47,41,91,82,70,30.16,30.06,8,4,23,0.27
2013-1-29,67,62,57,60,56,52,86,81,77,30.07,29.55,11,5,26,0.00
2013-1-30,70,54,34,62,48,25,93,81,69,29.72,29.31,12,5,31,0.86
2013-1-31,37,31,19,28,22,11,88,69,55,30.17,29.72,7,2,20,0.00
2013-2-1,22,16,9,12,6,0,76,65,55,30.52,30.17,4,1,14,0.01
2013-2-2,37,29,18,28,22,11,88,76,59,30.38,30.06,5,1,12,0.01
2013-2-3,32,29,23,27,22,17,86,76,64,30.18,30.00,4,1,13,0.00
2013-2-4,46,34,20,41,28,16,93,79,52,30.17,29.85,7,1,21,0.11
2013-2-5,51,42,35,40,35,31,90,78,54,30.05,29.88,5,1,12,0.00
2013-2-6,44,36,28,33,30,26,92,79,63,30.28,30.05,3,0,7,0.00
2013-2-7,66,49,34,44,36,30,86,65,40,30.20,29.83,5,1,13,0.00
2013-2-8,55,40,33,48,34,27,92,79,67,30.36,29.83,5,2,14,0.15
2013-2-9,47,37,27,29,26,24,87,65,45,30.43,30.19,4,1,10,0.00
2013-2-10,58,47,36,51,38,24,92,74,46,30.19,29.81,7,2,21,0.21
2013-2-11,56,49,39,52,36,28,89,63,40,30.12,29.81,7,3,16,0.00
2013-2-12,51,41,30,32,29,25,84,63,40,30.18,29.91,4,0,8,0.00
2013-2-13,43,38,33,35,31,29,91,76,60,29.95,29.79,5,1,11,0.07
2013-2-14,57,44,35,40,35,31,87,72,45,30.01,29.88,7,3,16,0.00
2013-2-15,45,39,29,35,28,19,83,67,46,30.20,30.01,4,1,13,0.00
2013-2-16,37,29,23,21,16,8,83,60,36,30.19,30.10,5,1,13,0.00
2013-2-17,40,30,21,19,15,13,77,56,35,30.29,30.17,3,1,9,0.00
2013-2-18,62,45,27,42,29,16,80,56,34,30.20,29.76,11,4,30,0.18
2013-2-19,48,37,25,43,26,15,88,67,45,30.22,29.72,11,3,27,0.22
2013-2-20,33,27,21,17,14,12,72,58,46,30.36,30.22,3,1,10,0.00
2013-2-21,38,30,22,30,20,15,87,67,50,30.36,30.02,4,2,11,0.18
2013-2-22,49,41,33,41,36,30,94,84,70,30.02,29.88,4,1,13,0.25
2013-2-23,47,38,30,34,26,23,83,64,44,30.05,29.92,3,1,9,0.00
2013-2-24,49,36,25,28,25,21,84,66,42,30.17,29.99,3,0,9,0.00
2013-2-25,52,40,29,28,25,23,84,57,35,30.14,29.79,5,1,13,0.00
2013-2-26,51,44,40,49,38,25,93,80,48,29.79,29.36,5,2,15,0.62
2013-2-27,41,38,34,37,33,29,90,82,67,29.81,29.58,5,3,15,0.03
2013-2-28,38,36,34,34,31,29,88,85,82,30.01,29.80,4,1,13,0.04
2013-3-1,39,36,34,34,32,31,91,86,74,30.05,29.98,3,0,8,0.08
2013-3-2,34,32,30,32,25,22,91,77,67,30.14,30.04,5,2,9,0.01
2013-3-3,40,32,26,25,20,15,84,63,41,30.15,30.08,4,1,11,0.02
2013-3-4,45,35,22,28,21,17,83,60,38,30.18,29.94,4,1,10,0.00
2013-3-5,46,40,31,45,35,27,94,83,54,29.94,29.60,6,1,18,0.41
2013-3-6,35,33,31,30,28,27,88,82,78,30.32,29.82,4,2,15,0.01
2013-3-7,38,35,32,30,28,27,86,76,66,30.41,30.30,2,0,6,0.01
2013-3-8,50,40,28,31,27,23,88,63,41,30.47,30.35,4,1,9,0.00
2013-3-9,62,48,31,38,32,26,84,56,31,30.35,30.03,4,1,11,0.00
2013-3-10,70,61,50,49,36,33,79,39,27,30.03,29.78,9,4,21,0.04
2013-3-11,55,49,39,53,44,32,93,84,65,29.93,29.68,9,2,23,1.15
2013-3-12,51,42,36,33,29,23,79,62,43,30.12,29.93,4,2,12,0.00
2013-3-13,38,34,28,32,22,15,81,62,47,30.40,30.09,5,2,16,0.00
2013-3-14,48,34,23,33,23,19,88,67,36,30.43,30.24,4,1,12,0.00
2013-3-15,64,46,30,44,36,28,92,71,45,30.24,29.76,5,1,10,0.01
2013-3-16,71,61,44,52,47,38,82,61,45,29.99,29.66,7,3,16,0.01
2013-3-17,44,38,34,39,35,32,92,89,81,30.09,29.91,5,2,11,0.99
2013-3-18,53,43,37,49,40,35,95,89,76,29.91,29.64,5,1,13,0.66
2013-3-19,49,41,32,36,24,13,86,55,25,30.18,29.90,5,2,15,0.00
2013-3-20,44,34,27,25,19,12,78,54,35,30.17,30.03,5,2,21,0.00
2013-3-21,35,28,22,16,13,10,64,54,37,30.09,30.02,4,1,12,0.00
2013-3-22,45,34,21,22,17,14,83,54,33,30.12,30.02,3,0,9,0.00
2013-3-23,56,46,38,30,25,19,58,44,33,30.05,29.83,4,1,10,0.00
2013-3-24,48,40,37,38,33,24,93,78,43,29.84,29.40,5,2,12,0.55
2013-3-25,37,34,32,33,30,28,91,85,76,30.04,29.50,4,2,15,0.04
2013-3-26,42,37,34,32,29,24,89,73,52,30.31,30.04,4,1,12,0.02
2013-3-27,47,38,28,28,26,23,84,61,41,30.38,30.31,3,1,9,0.00
2013-3-28,53,40,27,29,25,23,86,60,32,30.41,30.30,3,0,8,0.00
2013-3-29,58,44,33,43,34,26,88,68,48,30.34,30.20,4,1,11,0.00
2013-3-30,62,48,34,44,38,33,95,73,36,30.24,29.94,5,1,11,0.00
2013-3-31,62,53,48,50,46,42,94,80,54,29.94,29.82,3,1,11,0.08
2013-4-1,54,47,37,44,31,19,82,55,27,30.16,29.83,4,2,13,0.00
2013-4-2,51,40,28,24,19,9,76,47,20,30.30,30.15,3,1,9,0.00
2013-4-3,53,42,29,24,19,13,78,43,24,30.41,30.28,4,1,12,0.00
2013-4-4,54,46,39,30,22,16,67,38,31,30.29,30.01,3,1,9,0.00
2013-4-5,68,51,35,35,30,26,78,49,26,30.12,30.00,5,1,10,0.00
2013-4-6,74,59,44,40,34,28,61,41,26,30.16,29.90,7,2,22,0.00
2013-4-7,74,66,58,54,46,38,68,49,35,29.96,29.89,8,4,21,0.00
2013-4-8,74,65,54,57,52,47,78,64,53,29.96,29.87,8,3,22,0.00
2013-4-9,82,72,59,61,58,52,78,62,46,30.03,29.90,8,3,23,0.00
2013-4-10,85,76,64,64,61,57,77,61,48,29.95,29.73,9,3,22,0.00
2013-4-11,77,66,55,63,60,53,94,81,51,29.78,29.50,5,2,15,1.00
2013-4-12,56,48,40,53,39,34,92,71,52,29.97,29.57,4,1,17,0.07
2013-4-13,63,49,36,40,36,32,85,62,38,30.07,29.97,4,1,13,0.00
2013-4-14,76,58,41,49,42,37,87,59,28,30.02,29.82,6,2,21,0.00
2013-4-15,73,65,59,56,53,48,74,66,54,29.98,29.88,5,1,14,0.00
2013-4-16,82,69,58,68,61,53,92,75,59,30.11,29.92,5,2,15,0.32
2013-4-17,78,67,61,69,62,58,94,86,70,30.12,29.91,4,0,15,0.02
2013-4-18,83,75,65,64,60,54,82,62,41,29.91,29.57,10,4,26,0.00
2013-4-19,76,48,39,62,40,31,92,74,52,30.06,29.49,6,2,18,1.15
2013-4-20,57,47,36,35,31,22,87,57,26,30.38,30.06,4,1,11,0.00
2013-4-21,62,50,39,38,31,28,66,50,31,30.49,30.31,4,1,11,0.00
2013-4-22,74,56,38,46,39,34,84,57,31,30.34,30.09,3,0,9,0.00
2013-4-23,71,61,47,54,49,42,87,66,52,30.12,29.85,6,2,18,0.00
2013-4-24,68,53,38,57,45,35,90,76,59,30.27,29.78,6,1,22,0.79
2013-4-25,64,49,33,43,36,31,94,66,36,30.38,30.26,3,1,12,0.01
2013-4-26,66,52,38,43,36,30,88,57,30,30.44,30.31,3,0,9,0.00
2013-4-27,60,55,51,54,48,42,91,78,68,30.34,29.96,2,0,11,0.08
2013-4-28,66,59,54,60,55,52,95,87,74,29.97,29.86,4,1,13,0.13
2013-4-29,69,61,56,56,54,52,90,78,56,30.02,29.92,2,0,9,0.00
2013-4-30,82,65,48,60,53,45,94,68,34,30.02,29.94,2,0,8,0.00
2013-5-1,86,70,53,63,56,51,93,65,37,30.14,30.02,3,0,10,0.00
2013-5-2,79,70,62,61,57,53,79,64,49,30.16,30.03,3,0,11,0.00
2013-5-3,79,68,61,61,58,56,91,70,46,30.03,29.86,4,1,16,0.47
2013-5-4,61,57,53,59,52,48,93,84,64,29.98,29.88,2,0,8,0.86
2013-5-5,55,54,52,53,51,49,94,91,86,29.96,29.86,2,0,11,0.47
2013-5-6,70,59,53,58,54,51,92,83,59,29.92,29.80,2,0,11,0.14
2013-5-7,74,63,54,58,55,52,94,77,49,29.97,29.89,1,0,7,0.03
2013-5-8,78,66,54,63,57,52,95,74,45,30.00,29.91,1,0,7,0.01
2013-5-9,81,68,57,65,59,55,93,74,43,30.02,29.92,3,0,13,0.01
2013-5-10,69,66,63,64,62,59,94,86,73,29.93,29.81,3,0,14,0.88
2013-5-11,64,58,53,62,53,41,94,82,62,30.03,29.86,1,0,7,0.06
2013-5-12,61,52,43,42,35,29,76,53,31,30.16,30.03,2,0,9,0.00
2013-5-13,70,55,39,41,37,31,88,57,26,30.22,30.12,2,1,8,0.00
2013-5-14,85,66,45,61,51,40,86,60,42,30.16,29.84,5,1,20,0.00
2013-5-15,88,78,68,63,58,53,71,52,31,29.96,29.85,3,1,13,0.00
2013-5-16,75,71,67,66,60,51,90,69,50,29.95,29.86,3,0,8,0.02
2013-5-17,76,68,62,66,62,59,94,83,58,30.03,29.94,2,0,10,0.02
2013-5-18,78,71,66,68,65,63,91,82,68,30.02,29.92,2,0,8,0.01
2013-5-19,87,74,62,73,67,60,95,79,59,29.97,29.85,3,1,10,0.00
2013-5-20,86,76,67,72,68,63,91,75,57,29.98,29.85,3,1,14,0.00
2013-5-21,85,75,68,69,66,63,91,73,52,29.94,29.78,4,1,15,0.06
2013-5-22,80,71,66,69,64,61,92,80,62,29.82,29.74,4,1,14,0.35
2013-5-23,72,65,57,63,59,50,93,80,60,30.09,29.80,2,0,11,0.03
2013-5-24,71,59,51,50,45,36,83,63,31,30.33,30.09,2,0,7,0.00
2013-5-25,73,60,45,52,45,39,92,61,32,30.37,30.17,2,0,5,0.00
2013-5-26,74,64,56,56,52,47,88,67,47,30.28,30.13,2,0,6,0.01
2013-5-27,86,73,60,62,58,53,81,59,36,30.14,29.93,4,1,16,0.00
2013-5-28,87,79,71,67,62,60,69,57,43,30.01,29.91,4,2,17,0.00
2013-5-29,88,77,65,68,64,59,83,64,44,30.07,29.95,3,1,14,0.00
2013-5-30,88,79,71,71,67,62,79,67,54,30.09,29.96,5,2,20,0.00
2013-5-31,80,75,72,73,68,64,93,79,69,30.01,29.90,5,2,21,0.28
2013-6-1,77,71,64,70,66,61,94,86,73,29.94,29.76,4,1,12,0.34
2013-6-2,78,70,65,65,63,60,92,78,59,29.92,29.84,2,0,8,0.00
2013-6-3,72,66,58,60,56,52,91,72,54,30.04,29.92,1,0,5,0.00
2013-6-4,79,66,53,63,56,51,94,71,50,30.10,29.99,2,0,7,0.00
2013-6-5,84,71,59,66,60,54,86,69,48,30.03,29.81,3,0,8,0.00
2013-6-6,79,72,66,68,66,63,94,82,63,29.83,29.73,4,0,9,0.03
2013-6-7,80,71,63,66,62,57,94,74,51,29.84,29.75,1,0,5,0.00
2013-6-8,82,72,65,69,63,60,92,74,49,29.99,29.83,2,0,7,0.03
2013-6-9,80,71,63,70,65,60,92,80,57,30.02,29.85,4,1,12,0.15
2013-6-10,77,70,66,68,65,63,95,84,68,29.89,29.78,3,1,13,0.50
2013-6-11,86,74,62,70,65,60,94,75,51,29.98,29.88,2,0,12,0.00
2013-6-12,92,83,73,78,73,68,91,73,57,29.94,29.73,4,1,14,0.00
2013-6-13,84,78,70,74,64,54,75,62,47,29.94,29.69,3,1,12,0.00
2013-6-14,83,70,56,62,58,53,89,65,43,30.03,29.91,2,0,7,0.00
2013-6-15,87,74,61,66,62,58,92,69,44,30.08,29.94,3,0,14,0.00
2013-6-16,83,74,67,72,67,64,95,81,65,30.02,29.93,3,0,10,0.34
2013-6-17,88,72,66,75,68,63,96,86,60,29.97,29.84,4,0,8,0.43
2013-6-18,85,74,66,69,65,57,95,76,50,29.94,29.81,4,0,9,0.05
2013-6-19,84,73,63,68,63,61,95,73,50,30.07,29.93,1,0,6,0.00
2013-6-20,87,76,62,68,63,58,92,68,41,30.15,30.07,3,0,9,0.00
2013-6-21,89,77,65,72,66,62,91,71,50,30.17,30.06,3,0,10,0.00
2013-6-22,90,79,68,74,69,65,93,72,51,30.15,30.02,3,1,11,0.00
2013-6-24,70,70,69,68,67,67,92,92,91,30.04,30.03,0,0,1,0.04
2013-6-25,92,79,67,78,72,65,95,79,55,30.04,29.87,3,1,10,0.01
2013-6-26,87,77,68,76,71,66,95,83,67,29.95,29.71,4,1,12,0.42
2013-6-27,88,77,69,78,72,68,96,85,63,29.78,29.71,2,0,9,0.19
2013-6-28,87,80,73,72,66,59,85,64,40,29.72,29.58,2,0,9,0.04
2013-6-29,82,73,64,71,64,60,94,75,56,29.63,29.54,3,0,8,0.03
2013-6-30,82,70,63,67,65,62,95,85,56,29.78,29.62,2,0,7,0.02
2013-7-1,80,68,64,69,64,61,95,89,62,29.88,29.76,2,0,4,0.02
2013-7-2,66,65,64,64,63,62,96,94,94,29.93,29.86,1,0,3,0.00
2013-7-3,81,70,65,69,65,64,94,86,60,30.07,29.92,4,0,11,0.02
2013-7-4,71,69,67,70,68,66,96,95,94,30.11,30.03,2,0,5,0.11
2013-7-5,80,72,66,72,68,65,96,89,75,30.10,30.04,2,0,9,0.02
2013-7-6,74,70,66,68,67,65,96,91,80,30.09,30.04,2,0,6,0.01
2013-7-7,85,74,66,71,67,65,96,81,58,30.09,30.01,2,0,8,0.00
2013-7-8,89,77,66,74,70,65,96,80,56,30.12,30.01,3,0,9,0.00
2013-7-9,90,82,74,77,73,71,91,77,59,30.07,29.95,2,0,11,0.00
2013-7-10,89,78,71,80,73,68,93,84,66,29.97,29.82,4,1,11,0.05
2013-7-11,83,77,69,70,65,60,94,68,49,29.96,29.89,2,0,5,0.00
2013-7-12,82,72,60,62,59,56,93,65,44,30.05,29.97,2,0,8,0.00
2013-7-13,84,73,63,70,63,60,89,72,57,30.07,29.99,2,0,10,0.00
2013-7-14,90,78,67,76,70,64,95,78,55,30.15,30.05,3,0,14,0.15
2013-7-15,90,80,71,74,72,70,96,78,54,30.25,30.15,3,0,9,0.00
2013-7-16,91,81,71,76,73,70,94,76,55,30.29,30.20,1,0,6,0.00
2013-7-17,94,82,73,78,74,71,94,80,51,30.28,30.14,2,0,8,0.03
2013-7-18,92,82,75,79,76,73,94,81,59,30.17,29.99,3,0,8,0.03
2013-7-19,91,82,73,77,73,69,90,75,56,30.02,29.88,2,1,9,0.00
2013-7-20,90,81,74,76,73,69,91,77,57,29.91,29.82,3,1,11,0.03
2013-7-21,89,78,72,75,71,65,94,79,55,29.94,29.82,2,0,7,0.02
2013-7-22,81,75,71,75,71,69,95,90,78,29.89,29.75,2,0,8,1.26
2013-7-23,89,78,70,78,73,69,95,83,65,29.83,29.70,3,0,9,0.00
2013-7-24,79,72,64,70,62,57,83,70,54,29.94,29.78,1,0,5,0.00
2013-7-25,80,71,61,63,60,57,88,69,49,30.05,29.94,1,0,5,0.00
2013-7-26,82,71,60,66,62,58,94,74,54,30.06,29.95,2,0,7,0.00
2013-7-27,80,71,66,68,64,56,92,79,61,29.95,29.84,2,0,9,0.03
2013-7-28,77,66,53,57,53,50,91,66,43,30.05,29.92,1,0,7,0.00
2013-7-29,82,68,55,64,58,53,93,72,47,30.15,30.05,2,0,7,0.00
2013-7-30,80,69,62,67,62,60,92,80,60,30.18,30.11,3,0,9,0.00
2013-7-31,76,72,68,70,68,65,93,86,79,30.04,29.92,2,0,6,0.00
2013-8-1,84,74,67,69,65,60,95,77,46,29.99,29.91,1,0,6,0.00
2013-8-2,84,74,62,68,64,60,93,73,49,30.01,29.93,3,0,11,0.00
2013-8-3,86,76,70,74,68,65,89,78,66,30.01,29.92,2,0,7,0.12
2013-8-4,80,72,64,67,58,54,92,63,44,30.11,30.00,1,0,5,0.00
2013-8-5,83,71,58,62,59,55,93,68,43,30.09,29.92,2,0,9,0.00
2013-8-6,83,76,70,74,68,61,92,78,67,29.93,29.87,2,0,8,0.00
2013-8-7,84,78,71,76,73,70,95,86,75,29.92,29.83,2,0,9,0.00
2013-8-8,88,80,73,76,73,71,93,82,63,29.93,29.83,3,1,9,0.00
2013-8-9,83,77,75,78,74,72,95,90,77,29.98,29.87,2,0,8,0.57
2013-8-10,82,76,73,76,73,71,96,93,78,30.08,29.98,1,0,6,0.20
2013-8-11,88,78,71,73,71,68,95,80,57,30.07,29.99,1,0,8,0.00
2013-8-12,84,73,67,78,69,65,94,89,73,30.05,29.86,3,0,8,0.14
2013-8-13,81,73,66,73,66,54,95,80,59,30.03,29.85,2,0,6,0.36
2013-8-14,74,65,54,57,52,49,91,65,43,30.13,30.03,1,0,5,0.00
2013-8-15,77,65,52,58,54,50,93,71,44,30.13,30.02,1,0,7,0.00
2013-8-16,81,70,57,62,58,55,93,69,48,30.10,30.04,1,0,6,0.00
2013-8-17,83,73,66,71,62,57,83,69,54,30.13,30.04,1,0,5,0.00
2013-8-18,84,72,61,68,63,59,93,75,47,30.14,30.04,2,0,5,0.00
2013-8-19,86,75,65,70,66,63,94,77,53,30.10,30.01,2,0,6,0.00
2013-8-20,85,74,66,73,68,63,93,82,64,30.11,30.02,2,0,6,0.00
2013-8-21,89,77,67,75,70,65,95,80,56,30.13,30.01,2,0,8,0.00
2013-8-22,89,79,70,74,70,67,94,77,50,30.08,29.98,1,0,7,0.00
2013-8-23,88,78,70,72,68,65,94,75,50,30.08,29.99,1,0,5,0.00
2013-8-24,89,75,64,68,64,57,94,74,37,30.20,30.08,1,0,7,0.00
2013-8-25,89,82,62,71,67,60,93,62,45,30.29,30.17,2,0,7,0.00
2013-8-26,89,79,69,73,70,66,92,76,53,30.23,30.06,2,0,6,0.00
2013-8-27,90,80,73,76,73,70,91,79,61,30.08,29.95,2,0,7,0.00
2013-8-28,95,83,74,74,71,68,91,69,42,29.98,29.89,2,0,9,0.00
2013-8-29,92,82,73,76,70,68,88,69,48,29.97,29.90,1,0,5,0.00
2013-8-30,93,81,70,75,71,68,93,73,49,29.94,29.80,2,0,5,0.00
2013-8-31,94,82,70,77,73,67,93,76,56,29.90,29.71,4,1,11,0.62
2013-9-1,87,77,69,75,71,67,94,83,63,29.87,29.68,5,1,15,0.53
2013-9-2,88,75,69,76,71,67,94,86,64,29.85,29.78,4,0,11,0.17
2013-9-3,80,71,63,67,61,57,93,73,50,30.03,29.84,1,0,6,0.00
2013-9-4,82,71,58,63,60,56,92,70,47,30.13,30.03,3,0,7,0.00
2013-9-5,85,72,61,67,63,59,94,75,44,30.17,30.09,1,0,4,0.00
2013-9-6,85,67,64,68,62,59,93,85,52,30.17,30.08,0,0,3,0.00
2013-9-7,87,81,72,70,68,66,85,66,53,30.06,29.93,3,1,10,0.00
2013-9-8,89,77,70,74,70,67,94,78,55,29.96,29.90,2,0,8,0.05
2013-9-9,92,79,67,75,70,65,93,76,52,30.00,29.92,3,1,10,0.00
2013-9-10,93,81,73,76,72,68,88,76,54,30.10,29.99,3,1,10,0.00
2013-9-11,91,79,71,76,72,68,92,80,60,30.14,30.01,4,1,9,0.00
2013-9-12,81,75,68,73,69,64,91,82,65,30.01,29.87,2,0,8,0.04
2013-9-13,72,66,56,55,49,46,75,54,42,30.05,29.98,3,1,7,0.00
2013-9-14,73,59,48,51,48,45,92,69,39,30.15,30.05,1,0,6,0.00
2013-9-15,66,52,48,60,49,46,92,87,80,30.11,30.03,0,0,2,0.00
2013-9-16,74,69,62,63,61,58,88,78,66,30.21,30.04,1,0,4,0.00
2013-9-17,77,66,56,58,55,52,92,71,44,30.25,30.10,2,0,7,0.00
2013-9-18,79,69,60,69,63,55,94,83,70,30.13,30.03,2,0,7,0.04
2013-9-19,84,72,65,73,68,63,95,86,66,30.10,29.95,3,0,9,0.02
2013-9-20,85,74,68,72,68,66,94,84,62,29.97,29.79,4,1,13,1.05
2013-9-21,74,65,55,66,58,51,95,80,46,29.85,29.70,1,0,7,0.65
2013-9-22,71,60,50,53,51,48,94,75,50,29.98,29.85,1,0,6,0.00
2013-9-23,74,60,48,55,51,46,94,73,46,30.06,29.97,1,0,8,0.00
2013-9-24,80,65,52,65,57,50,91,77,54,30.03,29.84,3,0,7,0.00
2013-9-25,78,69,63,66,62,60,92,80,60,29.87,29.81,1,0,5,0.00
2013-9-26,78,65,55,60,55,51,94,73,41,30.04,29.87,1,0,4,0.00
2013-9-27,81,66,54,62,56,52,94,74,41,30.14,30.03,2,0,6,0.00
2013-9-28,82,66,54,64,58,52,94,78,47,30.15,30.03,3,0,8,0.00
2013-9-29,67,62,57,62,59,55,93,89,75,30.05,29.99,3,0,11,0.07
2013-9-30,77,67,62,66,62,60,94,85,65,30.01,29.92,3,0,9,0.01
2013-10-1,80,68,59,67,62,57,94,84,61,30.07,29.99,3,0,10,0.00
2013-10-2,80,70,63,72,68,62,95,91,76,30.09,30.01,3,0,10,0.05
2013-10-3,83,73,68,71,68,66,95,86,60,30.07,29.96,3,0,9,0.04
2013-10-4,84,72,64,72,67,63,95,85,63,30.06,29.98,3,0,10,0.66
2013-10-5,72,70,68,71,68,66,95,95,92,30.02,29.90,2,0,6,3.75
2013-10-6,71,63,55,68,61,51,95,93,85,29.92,29.76,4,0,12,1.34
2013-10-7,64,54,47,50,47,45,93,79,54,30.15,29.88,1,0,7,0.01
2013-10-8,69,55,45,51,47,43,95,77,47,30.24,30.14,2,0,7,0.00
2013-10-9,74,58,47,59,52,45,94,80,54,30.20,30.11,1,0,4,0.00
2013-10-10,74,60,49,56,52,47,94,79,47,30.17,30.05,1,0,4,0.00
2013-10-11,76,60,49,59,53,47,94,79,47,30.09,30.00,1,0,4,0.00
2013-10-12,79,63,51,64,56,49,94,82,49,30.09,30.01,2,0,6,0.00
2013-10-13,75,66,58,64,58,47,93,77,58,30.27,30.09,1,0,4,0.00
2013-10-14,72,60,51,57,50,44,89,72,53,30.30,30.13,1,0,5,0.00
2013-10-15,72,63,55,64,59,52,93,87,72,30.14,29.92,4,1,12,0.01
2013-10-16,67,64,60,62,59,54,92,85,75,29.96,29.88,3,1,7,0.01
2013-10-17,57,50,46,48,46,44,92,86,69,30.00,29.93,1,0,4,0.05
2013-10-18,67,52,41,52,46,39,94,81,51,30.06,29.94,3,0,9,0.00
2013-10-19,54,49,41,50,45,39,93,88,70,30.03,29.83,2,0,8,0.23
2013-10-20,63,49,40,47,42,37,93,78,50,30.08,30.00,4,1,15,0.05
2013-10-21,68,53,40,50,44,38,93,73,43,30.03,29.91,4,1,13,0.00
2013-10-22,56,48,37,48,38,31,93,71,43,30.06,29.81,2,0,7,0.03
2013-10-23,51,46,40,45,38,32,88,74,54,30.09,29.77,2,1,13,0.00
2013-10-24,47,41,35,37,34,27,84,73,58,30.33,30.09,2,0,8,0.01
2013-10-25,49,37,28,32,28,26,91,73,44,30.49,30.33,1,0,6,0.00
2013-10-26,58,43,31,40,34,27,87,70,47,30.33,29.97,5,1,17,0.00
2013-10-27,61,46,34,40,37,32,93,74,36,30.12,30.03,2,0,9,0.00
2013-10-28,64,49,40,44,40,36,91,73,41,30.28,30.08,1,0,4,0.00
2013-10-29,56,49,39,54,46,37,94,91,87,30.34,30.16,1,0,5,0.09
2013-10-30,69,60,56,65,58,54,95,93,85,30.16,30.05,3,1,9,1.46
2013-10-31,68,65,60,65,61,55,93,89,80,29.83,29.40,9,4,27,0.66
2013-11-1,69,58,51,55,49,44,90,73,44,29.78,29.49,4,1,14,0.00
2013-11-2,58,51,44,46,42,38,81,72,56,30.12,29.78,1,0,8,0.01
2013-11-3,56,44,36,41,37,33,92,76,47,30.33,30.12,1,0,4,0.03
2013-11-4,63,56,52,46,44,41,81,65,48,30.37,30.27,3,0,13,0.00
2013-11-5,63,55,47,46,44,41,85,69,49,30.39,30.19,1,0,4,0.00
2013-11-6,68,57,46,59,51,42,92,81,66,30.20,29.98,6,1,16,0.26
2013-11-7,52,44,39,43,33,25,91,69,38,30.31,30.10,7,2,14,0.06
2013-11-8,54,42,31,34,31,27,90,67,36,30.41,30.24,4,0,9,0.00
2013-11-9,64,52,33,38,34,29,86,54,34,30.25,30.08,6,2,16,0.00
2013-11-10,57,48,36,41,34,26,83,62,32,30.34,30.16,6,1,14,0.00
2013-11-11,65,47,32,45,32,22,88,62,19,30.31,30.10,12,1,17,0.01
2013-11-12,45,35,28,40,24,16,89,65,40,30.66,30.23,13,8,25,0.02
2013-11-13,43,31,23,26,22,20,88,71,43,30.70,30.44,3,0,12,0.00
2013-11-14,56,42,27,26,22,18,80,50,23,30.44,30.17,6,2,14,0.00
2013-11-15,55,47,37,45,33,21,91,60,36,30.19,30.09,5,1,11,0.08
2013-11-16,64,56,47,58,52,44,92,88,80,30.11,29.87,7,2,18,0.00
2013-11-17,68,62,50,65,57,41,94,85,48,29.87,29.55,9,4,24,2.28
2013-11-18,58,50,40,45,37,30,85,64,42,30.22,29.84,6,2,20,0.00
2013-11-19,45,38,30,31,29,27,89,72,53,30.34,30.22,7,2,15,0.00
2013-11-20,56,42,29,37,31,26,86,68,44,30.30,30.18,4,1,10,0.00
2013-11-21,64,51,39,52,44,33,94,78,62,30.29,30.15,4,0,9,0.08
2013-11-22,57,52,42,56,48,35,94,87,74,30.39,30.16,10,3,20,0.03
2013-11-23,45,36,25,35,21,11,78,56,31,30.61,30.36,12,6,21,0.00
2013-11-24,31,25,20,17,13,11,75,61,44,30.74,30.54,8,3,16,0.00
2013-11-25,41,33,24,32,20,15,90,60,42,30.55,30.20,6,1,14,0.00
2013-11-26,36,35,33,34,32,28,92,87,72,30.25,29.94,6,2,17,0.06
2013-11-27,36,29,20,28,19,12,77,68,57,30.36,29.98,9,3,23,0.01
2013-11-28,39,28,19,21,17,14,84,65,41,30.48,30.32,6,1,14,0.00
2013-11-29,45,33,22,27,23,18,87,69,47,30.64,30.48,3,0,8,0.00
2013-11-30,57,40,26,33,28,23,89,64,38,30.50,30.20,6,1,13,0.00
2013-12-1,56,48,40,39,34,29,78,59,51,30.21,29.95,4,2,9,0.00
2013-12-2,57,46,37,43,39,33,88,76,58,29.95,29.74,2,0,5,0.00
2013-12-3,59,50,39,51,46,36,93,86,73,29.84,29.75,3,0,10,0.00
2013-12-4,70,60,49,61,55,46,94,82,68,29.82,29.67,7,2,21,0.00
2013-12-5,69,50,35,63,46,31,91,85,75,30.16,29.75,8,4,19,0.52
2013-12-6,35,30,28,31,27,25,92,90,85,30.40,30.11,8,5,17,0.53
2013-12-7,27,24,22,23,21,19,87,85,81,30.60,30.49,5,2,10,0.06
2013-12-8,34,28,24,32,25,20,93,89,83,30.50,30.05,6,2,11,0.18
2013-12-9,34,31,26,32,27,21,93,86,77,30.27,30.06,3,1,12,0.00
2013-12-10,32,26,22,23,20,19,90,80,63,30.40,30.19,5,1,14,0.02
2013-12-11,38,27,18,28,21,15,91,79,64,30.57,30.34,7,2,17,0.00
2013-12-12,29,22,12,16,12,7,85,66,39,30.63,30.39,4,1,9,0.00
2013-12-13,44,32,20,32,22,15,92,69,43,30.39,30.12,5,1,15,0.04
2013-12-14,41,37,34,39,35,32,94,92,88,30.14,29.73,5,1,16,0.42
2013-12-15,34,31,28,32,26,23,89,82,76,30.17,29.96,5,2,18,0.00
2013-12-16,46,37,32,36,32,27,89,82,69,30.16,30.02,5,2,11,0.00
2013-12-17,43,36,30,37,31,26,87,82,70,30.24,30.00,4,1,12,0.00
2013-12-18,44,36,25,27,22,18,86,61,35,30.34,30.09,6,2,14,0.00
2013-12-19,62,52,42,46,35,20,65,53,39,30.12,29.96,8,5,21,0.00
2013-12-20,64,58,53,59,50,39,91,75,52,29.97,29.82,7,5,17,0.04
2013-12-21,70,64,60,64,60,58,94,89,82,29.83,29.43,11,4,24,2.98
2013-12-22,62,52,39,59,47,34,92,85,79,30.10,29.54,8,3,20,0.20
2013-12-23,39,33,28,35,26,20,89,76,67,30.45,30.10,5,2,17,0.01
2013-12-24,28,22,16,22,13,6,79,67,51,30.62,30.43,5,2,16,0.00
2013-12-25,41,30,18,26,19,13,84,65,43,30.50,30.25,5,1,10,0.00
2013-12-26,43,36,29,30,27,24,84,72,54,30.42,30.25,4,1,14,0.00
2013-12-27,51,38,28,32,28,23,85,69,46,30.45,30.33,5,2,13,0.00
2013-12-28,51,42,30,37,30,26,87,63,46,30.34,30.02,5,1,10,0.03
2013-12-29,48,40,32,43,36,27,93,87,75,30.11,29.86,6,1,17,0.36
2013-12-30,32,28,24,28,22,17,87,76,66,30.29,30.10,4,1,14,0.00
2013-12-31,39,30,24,25,20,17,80,67,49,30.45,30.24,5,2,12,0.00
2014-1-1,48,38,28,31,27,24,85,67,43,30.31,30.00,6,2,13,0.00
2014-1-2,38,29,17,35,24,10,93,84,70,30.36,29.83,9,3,21,0.12